createdAt,value
2023-04-18T00:00:02.165Z,10.65
2023-04-18T00:15:01.822Z,10.63
2023-04-18T00:30:02.450Z,10.63
2023-04-18T00:45:02.096Z,10.69
2023-04-18T01:00:01.718Z,10.54
2023-04-18T01:15:02.355Z,10.7
2023-04-18T01:30:01.988Z,10.6
2023-04-18T01:45:01.623Z,10.55
2023-04-18T02:00:02.210Z,10.63
2023-04-18T02:15:01.824Z,10.66
2023-04-18T02:30:02.516Z,10.63
2023-04-18T02:45:02.169Z,10.52
2023-04-18T03:00:01.789Z,10.54
2023-04-18T03:15:02.392Z,10.36
2023-04-18T03:30:02.038Z,10.29
2023-04-18T03:45:01.621Z,10.13
2023-04-18T04:00:02.254Z,10.14
2023-04-18T04:15:01.887Z,10.04
2023-04-18T04:30:02.007Z,9.91
2023-04-18T04:45:01.733Z,9.94
2023-04-18T05:00:02.473Z,9.88
2023-04-18T05:15:02.127Z,9.81
2023-04-18T05:30:01.785Z,9.86
2023-04-18T05:45:02.416Z,9.84
2023-04-18T06:00:02.218Z,9.83
2023-04-18T06:15:02.029Z,9.97
2023-04-18T06:30:01.725Z,9.78
2023-04-18T06:45:02.358Z,10.04
2023-04-18T07:00:02.107Z,10.05
2023-04-18T07:15:01.756Z,10.06
2023-04-18T07:30:02.440Z,9.98
2023-04-18T07:45:02.100Z,10.21
2023-04-18T08:00:01.746Z,10.46
2023-04-18T08:15:02.366Z,10.53
2023-04-18T08:30:02.100Z,11.11
2023-04-18T08:45:01.761Z,11.38
2023-04-18T09:00:02.429Z,11.92
2023-04-18T09:15:02.130Z,12.14
2023-04-18T09:30:01.854Z,12.57
2023-04-18T09:45:01.591Z,12.89
2023-04-18T10:00:02.265Z,13.24
2023-04-18T10:15:01.923Z,13.21
2023-04-18T10:30:01.592Z,13.5
2023-04-18T10:45:02.264Z,13.66
2023-04-18T11:00:02.045Z,13.97
2023-04-18T11:15:01.768Z,14.04
2023-04-18T11:30:02.471Z,14.35
2023-04-18T11:45:02.232Z,14.92
2023-04-18T12:00:01.862Z,15.32
2023-04-18T12:15:02.530Z,15.35
2023-04-18T12:30:02.257Z,15.65
2023-04-18T12:45:01.899Z,16.09
2023-04-18T13:00:01.605Z,16.48
2023-04-18T13:15:02.271Z,16.69
2023-04-18T13:30:01.940Z,16.99
2023-04-18T13:45:01.629Z,17.02
2023-04-18T14:00:02.418Z,17.07
2023-04-18T14:15:02.062Z,16.93
2023-04-18T14:30:01.681Z,16.97
2023-04-18T14:45:02.295Z,17.06
2023-04-18T15:00:01.854Z,17.18
2023-04-18T15:15:02.537Z,17.17
2023-04-18T15:30:02.235Z,17.38
2023-04-18T15:45:01.925Z,17.22
2023-04-18T16:00:01.643Z,17.16
2023-04-18T16:15:02.276Z,17.16
2023-04-18T16:30:02.028Z,17.1
2023-04-18T16:45:01.789Z,17.15
2023-04-18T17:00:02.418Z,17.11
2023-04-18T17:15:02.087Z,16.89
2023-04-18T17:30:01.768Z,16.69
2023-04-18T17:45:02.366Z,16.6
2023-04-18T18:00:02.023Z,16.34
2023-04-18T18:15:01.687Z,16.11
2023-04-18T18:30:02.383Z,15.69
2023-04-18T18:45:02.207Z,15.36
2023-04-18T19:00:01.843Z,15.07
2023-04-18T19:15:02.435Z,14.71
2023-04-18T19:30:02.084Z,14.37
2023-04-18T19:45:01.742Z,14.13
2023-04-18T20:00:02.376Z,13.79
2023-04-18T20:15:01.979Z,13.72
2023-04-18T20:30:01.727Z,13.66
2023-04-18T20:45:02.381Z,13.57
2023-04-18T21:00:02.006Z,13.54
2023-04-18T21:15:01.628Z,13.58
2023-04-18T21:30:04.601Z,13.58
2023-04-18T21:45:01.616Z,13.5
2023-04-18T22:00:02.282Z,13.48
2023-04-18T22:15:01.966Z,13.3
2023-04-18T22:30:01.668Z,13.31
2023-04-18T22:45:02.342Z,13.06
2023-04-18T23:00:02.003Z,12.84
2023-04-18T23:15:01.616Z,12.8
2023-04-18T23:30:02.310Z,12.59
2023-04-18T23:45:01.903Z,12.59
